sensor_id;sensor_type;location;lat;lon;timestamp;P1;durP1;ratioP1;P2;durP2;ratioP2
11473;SDS011;5793;52.238;13.438;2023-03-01T00:01:40;42.87;;;24.47;;
11473;SDS011;5793;52.238;13.438;2023-03-01T00:04:07;36.97;;;23.13;;
11473;SDS011;5793;52.238;13.438;2023-03-01T00:06:35;38.60;;;24.33;;
11473;SDS011;5793;52.238;13.438;2023-03-01T00:09:03;38.70;;;21.73;;
11473;SDS011;5793;52.238;13.438;2023-03-01T00:11:31;40.40;;;23.57;;
11473;SDS011;5793;52.238;13.438;2023-03-01T00:14:01;37.73;;;24.40;;
11473;SDS011;5793;52.238;13.438;2023-03-01T00:16:33;39.07;;;22.97;;
11473;SDS011;5793;52.238;13.438;2023-03-01T00:19:05;34.43;;;22.07;;
11473;SDS011;5793;52.238;13.438;2023-03-01T00:21:33;39.93;;;21.63;;
11473;SDS011;5793;52.238;13.438;2023-03-01T00:24:02;38.90;;;24.17;;
11473;SDS011;5793;52.238;13.438;2023-03-01T00:26:30;39.17;;;24.23;;
11473;SDS011;5793;52.238;13.438;2023-03-01T00:28:58;38.60;;;23.33;;
11473;SDS011;5793;52.238;13.438;2023-03-01T00:31:28;45.80;;;24.03;;
11473;SDS011;5793;52.238;13.438;2023-03-01T00:33:58;39.77;;;23.30;;
11473;SDS011;5793;52.238;13.438;2023-03-01T00:36:31;40.77;;;23.90;;
11473;SDS011;5793;52.238;13.438;2023-03-01T00:39:00;39.13;;;23.97;;
11473;SDS011;5793;52.238;13.438;2023-03-01T00:41:30;39.30;;;23.00;;
11473;SDS011;5793;52.238;13.438;2023-03-01T00:44:00;39.63;;;22.77;;
11473;SDS011;5793;52.238;13.438;2023-03-01T00:46:29;39.13;;;22.27;;
11473;SDS011;5793;52.238;13.438;2023-03-01T00:48:57;36.63;;;22.03;;
11473;SDS011;5793;52.238;13.438;2023-03-01T00:51:28;39.27;;;22.03;;
11473;SDS011;5793;52.238;13.438;2023-03-01T00:53:57;37.87;;;21.60;;
11473;SDS011;5793;52.238;13.438;2023-03-01T00:56:26;36.60;;;22.90;;
11473;SDS011;5793;52.238;13.438;2023-03-01T00:58:54;35.87;;;21.70;;
11473;SDS011;5793;52.238;13.438;2023-03-01T01:01:23;32.57;;;20.20;;
11473;SDS011;5793;52.238;13.438;2023-03-01T01:03:55;33.63;;;21.53;;
11473;SDS011;5793;52.238;13.438;2023-03-01T01:06:25;35.13;;;21.77;;
11473;SDS011;5793;52.238;13.438;2023-03-01T01:08:55;42.53;;;22.90;;
11473;SDS011;5793;52.238;13.438;2023-03-01T01:11:24;38.23;;;22.57;;
11473;SDS011;5793;52.238;13.438;2023-03-01T01:13:53;36.43;;;22.77;;
11473;SDS011;5793;52.238;13.438;2023-03-01T01:16:22;33.97;;;21.47;;
11473;SDS011;5793;52.238;13.438;2023-03-01T01:18:51;40.43;;;22.53;;
11473;SDS011;5793;52.238;13.438;2023-03-01T01:21:21;38.27;;;22.27;;
11473;SDS011;5793;52.238;13.438;2023-03-01T01:23:50;38.07;;;22.63;;
11473;SDS011;5793;52.238;13.438;2023-03-01T01:26:19;39.50;;;22.20;;
11473;SDS011;5793;52.238;13.438;2023-03-01T01:28:48;36.57;;;21.23;;
11473;SDS011;5793;52.238;13.438;2023-03-01T01:31:17;33.83;;;21.20;;
11473;SDS011;5793;52.238;13.438;2023-03-01T01:33:46;33.33;;;20.40;;
11473;SDS011;5793;52.238;13.438;2023-03-01T01:36:14;34.07;;;20.27;;
11473;SDS011;5793;52.238;13.438;2023-03-01T01:38:43;28.73;;;18.67;;
11473;SDS011;5793;52.238;13.438;2023-03-01T01:41:11;29.80;;;17.07;;
11473;SDS011;5793;52.238;13.438;2023-03-01T01:43:40;26.93;;;17.33;;
11473;SDS011;5793;52.238;13.438;2023-03-01T01:46:13;27.20;;;16.70;;
11473;SDS011;5793;52.238;13.438;2023-03-01T01:48:48;27.37;;;15.50;;
11473;SDS011;5793;52.238;13.438;2023-03-01T01:51:20;28.63;;;16.23;;
11473;SDS011;5793;52.238;13.438;2023-03-01T01:53:53;27.13;;;16.37;;
11473;SDS011;5793;52.238;13.438;2023-03-01T01:56:26;27.77;;;16.37;;
11473;SDS011;5793;52.238;13.438;2023-03-01T01:58:55;28.47;;;15.83;;
11473;SDS011;5793;52.238;13.438;2023-03-01T02:01:24;26.70;;;16.17;;
11473;SDS011;5793;52.238;13.438;2023-03-01T02:03:52;25.60;;;15.30;;
11473;SDS011;5793;52.238;13.438;2023-03-01T02:06:21;22.27;;;14.23;;
11473;SDS011;5793;52.238;13.438;2023-03-01T02:08:57;21.40;;;13.50;;
11473;SDS011;5793;52.238;13.438;2023-03-01T02:11:29;19.50;;;13.03;;
11473;SDS011;5793;52.238;13.438;2023-03-01T02:13:58;22.67;;;13.33;;
11473;SDS011;5793;52.238;13.438;2023-03-01T02:16:26;22.03;;;14.20;;
11473;SDS011;5793;52.238;13.438;2023-03-01T02:18:55;21.43;;;12.53;;
11473;SDS011;5793;52.238;13.438;2023-03-01T02:21:28;17.83;;;11.97;;
11473;SDS011;5793;52.238;13.438;2023-03-01T02:24:05;21.20;;;13.23;;
11473;SDS011;5793;52.238;13.438;2023-03-01T02:26:48;24.67;;;13.87;;
11473;SDS011;5793;52.238;13.438;2023-03-01T02:29:20;25.97;;;16.47;;
11473;SDS011;5793;52.238;13.438;2023-03-01T02:31:48;27.77;;;17.70;;
11473;SDS011;5793;52.238;13.438;2023-03-01T02:34:20;27.90;;;16.80;;
11473;SDS011;5793;52.238;13.438;2023-03-01T02:36:52;24.67;;;16.80;;
11473;SDS011;5793;52.238;13.438;2023-03-01T02:39:24;26.17;;;16.50;;
11473;SDS011;5793;52.238;13.438;2023-03-01T02:41:54;25.23;;;17.10;;
11473;SDS011;5793;52.238;13.438;2023-03-01T02:44:24;26.73;;;16.70;;
11473;SDS011;5793;52.238;13.438;2023-03-01T02:46:53;24.60;;;15.73;;
11473;SDS011;5793;52.238;13.438;2023-03-01T02:49:24;22.33;;;15.13;;
11473;SDS011;5793;52.238;13.438;2023-03-01T02:52:01;26.07;;;15.57;;
11473;SDS011;5793;52.238;13.438;2023-03-01T02:54:51;25.40;;;15.30;;
11473;SDS011;5793;52.238;13.438;2023-03-01T02:57:25;25.07;;;15.17;;
11473;SDS011;5793;52.238;13.438;2023-03-01T02:59:56;22.53;;;14.73;;
11473;SDS011;5793;52.238;13.438;2023-03-01T03:02:28;23.57;;;14.47;;
11473;SDS011;5793;52.238;13.438;2023-03-01T03:05:04;25.17;;;14.73;;
11473;SDS011;5793;52.238;13.438;2023-03-01T03:07:35;22.90;;;13.63;;
11473;SDS011;5793;52.238;13.438;2023-03-01T03:10:04;23.47;;;14.53;;
11473;SDS011;5793;52.238;13.438;2023-03-01T03:12:35;21.87;;;13.83;;
11473;SDS011;5793;52.238;13.438;2023-03-01T03:15:05;24.07;;;15.20;;
11473;SDS011;5793;52.238;13.438;2023-03-01T03:17:35;22.23;;;14.03;;
11473;SDS011;5793;52.238;13.438;2023-03-01T03:20:04;23.10;;;13.20;;
11473;SDS011;5793;52.238;13.438;2023-03-01T03:22:37;25.37;;;14.20;;
11473;SDS011;5793;52.238;13.438;2023-03-01T03:25:05;23.73;;;14.40;;
11473;SDS011;5793;52.238;13.438;2023-03-01T03:27:36;20.80;;;14.80;;
11473;SDS011;5793;52.238;13.438;2023-03-01T03:30:06;25.87;;;15.30;;
11473;SDS011;5793;52.238;13.438;2023-03-01T03:32:38;22.93;;;14.50;;
11473;SDS011;5793;52.238;13.438;2023-03-01T03:35:06;20.97;;;14.10;;
11473;SDS011;5793;52.238;13.438;2023-03-01T03:37:36;22.83;;;14.53;;
11473;SDS011;5793;52.238;13.438;2023-03-01T03:40:22;24.70;;;15.17;;
11473;SDS011;5793;52.238;13.438;2023-03-01T03:42:50;24.17;;;14.07;;
11473;SDS011;5793;52.238;13.438;2023-03-01T03:45:19;21.47;;;13.53;;
11473;SDS011;5793;52.238;13.438;2023-03-01T03:47:47;22.07;;;13.90;;
11473;SDS011;5793;52.238;13.438;2023-03-01T03:50:15;20.50;;;12.83;;
11473;SDS011;5793;52.238;13.438;2023-03-01T03:52:44;19.70;;;12.77;;
11473;SDS011;5793;52.238;13.438;2023-03-01T03:55:12;20.57;;;13.03;;
11473;SDS011;5793;52.238;13.438;2023-03-01T03:57:40;23.33;;;14.10;;
11473;SDS011;5793;52.238;13.438;2023-03-01T04:00:09;22.40;;;13.30;;
11473;SDS011;5793;52.238;13.438;2023-03-01T04:02:40;18.93;;;12.70;;
11473;SDS011;5793;52.238;13.438;2023-03-01T04:05:09;21.27;;;13.07;;
11473;SDS011;5793;52.238;13.438;2023-03-01T04:07:38;19.43;;;12.70;;
11473;SDS011;5793;52.238;13.438;2023-03-01T04:10:09;20.23;;;12.20;;
11473;SDS011;5793;52.238;13.438;2023-03-01T04:12:39;22.70;;;12.50;;
11473;SDS011;5793;52.238;13.438;2023-03-01T04:15:08;19.87;;;12.70;;
11473;SDS011;5793;52.238;13.438;2023-03-01T04:17:41;17.77;;;11.23;;
11473;SDS011;5793;52.238;13.438;2023-03-01T04:20:10;20.70;;;12.73;;
11473;SDS011;5793;52.238;13.438;2023-03-01T04:22:40;19.57;;;11.73;;
11473;SDS011;5793;52.238;13.438;2023-03-01T04:25:08;21.57;;;11.47;;
11473;SDS011;5793;52.238;13.438;2023-03-01T04:27:40;23.77;;;13.00;;
11473;SDS011;5793;52.238;13.438;2023-03-01T04:30:08;19.80;;;11.67;;
11473;SDS011;5793;52.238;13.438;2023-03-01T04:32:37;18.50;;;11.73;;
11473;SDS011;5793;52.238;13.438;2023-03-01T04:35:07;20.17;;;12.37;;
11473;SDS011;5793;52.238;13.438;2023-03-01T04:37:35;21.70;;;11.73;;
11473;SDS011;5793;52.238;13.438;2023-03-01T04:40:03;19.73;;;11.90;;
11473;SDS011;5793;52.238;13.438;2023-03-01T04:42:42;17.47;;;10.87;;
11473;SDS011;5793;52.238;13.438;2023-03-01T04:45:10;19.83;;;11.80;;
11473;SDS011;5793;52.238;13.438;2023-03-01T04:47:40;18.00;;;10.30;;
11473;SDS011;5793;52.238;13.438;2023-03-01T04:50:11;18.23;;;10.33;;
11473;SDS011;5793;52.238;13.438;2023-03-01T04:52:41;17.00;;;10.37;;
11473;SDS011;5793;52.238;13.438;2023-03-01T04:55:09;17.27;;;10.00;;
11473;SDS011;5793;52.238;13.438;2023-03-01T04:57:38;15.83;;;10.10;;
11473;SDS011;5793;52.238;13.438;2023-03-01T05:00:07;26.00;;;11.43;;
11473;SDS011;5793;52.238;13.438;2023-03-01T05:02:50;22.37;;;10.90;;
11473;SDS011;5793;52.238;13.438;2023-03-01T05:05:22;23.13;;;10.80;;
11473;SDS011;5793;52.238;13.438;2023-03-01T05:07:52;16.83;;;9.57;;
11473;SDS011;5793;52.238;13.438;2023-03-01T05:10:21;17.87;;;10.07;;
11473;SDS011;5793;52.238;13.438;2023-03-01T05:12:50;16.37;;;9.93;;
11473;SDS011;5793;52.238;13.438;2023-03-01T05:15:18;24.60;;;9.67;;
11473;SDS011;5793;52.238;13.438;2023-03-01T05:17:48;18.63;;;9.20;;
11473;SDS011;5793;52.238;13.438;2023-03-01T05:20:15;15.40;;;9.50;;
11473;SDS011;5793;52.238;13.438;2023-03-01T05:22:45;17.73;;;9.23;;
11473;SDS011;5793;52.238;13.438;2023-03-01T05:25:13;16.83;;;9.07;;
11473;SDS011;5793;52.238;13.438;2023-03-01T05:27:44;19.63;;;9.90;;
11473;SDS011;5793;52.238;13.438;2023-03-01T05:30:12;18.80;;;10.07;;
11473;SDS011;5793;52.238;13.438;2023-03-01T05:32:41;19.23;;;10.17;;
11473;SDS011;5793;52.238;13.438;2023-03-01T05:35:11;17.23;;;10.57;;
11473;SDS011;5793;52.238;13.438;2023-03-01T05:37:40;17.63;;;10.57;;
11473;SDS011;5793;52.238;13.438;2023-03-01T05:40:11;17.73;;;10.13;;
11473;SDS011;5793;52.238;13.438;2023-03-01T05:42:43;17.93;;;10.53;;
11473;SDS011;5793;52.238;13.438;2023-03-01T05:45:11;22.77;;;10.63;;
11473;SDS011;5793;52.238;13.438;2023-03-01T05:47:41;19.63;;;11.27;;
11473;SDS011;5793;52.238;13.438;2023-03-01T05:50:11;22.00;;;10.87;;
11473;SDS011;5793;52.238;13.438;2023-03-01T05:52:40;18.50;;;9.97;;
11473;SDS011;5793;52.238;13.438;2023-03-01T05:55:08;16.37;;;9.73;;
11473;SDS011;5793;52.238;13.438;2023-03-01T05:57:37;17.37;;;10.07;;
11473;SDS011;5793;52.238;13.438;2023-03-01T06:00:05;17.47;;;10.03;;
11473;SDS011;5793;52.238;13.438;2023-03-01T06:02:34;17.20;;;9.47;;
11473;SDS011;5793;52.238;13.438;2023-03-01T06:05:02;17.27;;;8.83;;
11473;SDS011;5793;52.238;13.438;2023-03-01T06:07:31;17.47;;;9.17;;
11473;SDS011;5793;52.238;13.438;2023-03-01T06:09:59;19.90;;;9.97;;
11473;SDS011;5793;52.238;13.438;2023-03-01T06:12:29;15.00;;;9.47;;
11473;SDS011;5793;52.238;13.438;2023-03-01T06:14:59;20.33;;;10.13;;
11473;SDS011;5793;52.238;13.438;2023-03-01T06:17:29;21.80;;;10.00;;
11473;SDS011;5793;52.238;13.438;2023-03-01T06:19:57;19.73;;;10.20;;
11473;SDS011;5793;52.238;13.438;2023-03-01T06:22:25;17.47;;;9.60;;
11473;SDS011;5793;52.238;13.438;2023-03-01T06:24:54;28.63;;;10.43;;
11473;SDS011;5793;52.238;13.438;2023-03-01T06:27:21;24.30;;;11.17;;
11473;SDS011;5793;52.238;13.438;2023-03-01T06:29:49;20.57;;;10.03;;
11473;SDS011;5793;52.238;13.438;2023-03-01T06:32:19;24.10;;;11.50;;
11473;SDS011;5793;52.238;13.438;2023-03-01T06:34:47;21.73;;;10.90;;
11473;SDS011;5793;52.238;13.438;2023-03-01T06:37:15;22.40;;;10.87;;
11473;SDS011;5793;52.238;13.438;2023-03-01T06:39:43;22.27;;;11.40;;
11473;SDS011;5793;52.238;13.438;2023-03-01T06:42:10;20.63;;;10.43;;
11473;SDS011;5793;52.238;13.438;2023-03-01T06:44:38;21.10;;;11.33;;
11473;SDS011;5793;52.238;13.438;2023-03-01T06:47:06;24.77;;;11.10;;
11473;SDS011;5793;52.238;13.438;2023-03-01T06:49:35;22.47;;;11.23;;
11473;SDS011;5793;52.238;13.438;2023-03-01T06:52:03;22.10;;;11.47;;
11473;SDS011;5793;52.238;13.438;2023-03-01T06:54:31;18.80;;;12.47;;
11473;SDS011;5793;52.238;13.438;2023-03-01T06:56:58;19.97;;;10.97;;
11473;SDS011;5793;52.238;13.438;2023-03-01T06:59:26;20.87;;;11.57;;
11473;SDS011;5793;52.238;13.438;2023-03-01T07:01:54;19.43;;;11.87;;
11473;SDS011;5793;52.238;13.438;2023-03-01T07:04:22;28.30;;;14.10;;
11473;SDS011;5793;52.238;13.438;2023-03-01T07:06:51;20.33;;;12.07;;
11473;SDS011;5793;52.238;13.438;2023-03-01T07:09:21;27.53;;;13.33;;
11473;SDS011;5793;52.238;13.438;2023-03-01T07:11:49;28.80;;;13.50;;
11473;SDS011;5793;52.238;13.438;2023-03-01T07:14:17;21.80;;;11.87;;
11473;SDS011;5793;52.238;13.438;2023-03-01T07:16:45;20.97;;;11.90;;
11473;SDS011;5793;52.238;13.438;2023-03-01T07:19:14;20.40;;;11.17;;
11473;SDS011;5793;52.238;13.438;2023-03-01T07:21:41;22.87;;;11.70;;
11473;SDS011;5793;52.238;13.438;2023-03-01T07:24:10;22.93;;;12.13;;
11473;SDS011;5793;52.238;13.438;2023-03-01T07:26:38;21.53;;;12.00;;
11473;SDS011;5793;52.238;13.438;2023-03-01T07:29:06;19.83;;;11.50;;
11473;SDS011;5793;52.238;13.438;2023-03-01T07:31:35;22.40;;;11.90;;
11473;SDS011;5793;52.238;13.438;2023-03-01T07:34:03;17.33;;;11.77;;
11473;SDS011;5793;52.238;13.438;2023-03-01T07:36:30;19.90;;;11.80;;
11473;SDS011;5793;52.238;13.438;2023-03-01T07:38:58;18.97;;;12.30;;
11473;SDS011;5793;52.238;13.438;2023-03-01T07:41:29;21.67;;;13.63;;
11473;SDS011;5793;52.238;13.438;2023-03-01T07:43:57;24.37;;;13.60;;
11473;SDS011;5793;52.238;13.438;2023-03-01T07:46:25;23.23;;;13.87;;
11473;SDS011;5793;52.238;13.438;2023-03-01T07:48:53;21.67;;;14.37;;
11473;SDS011;5793;52.238;13.438;2023-03-01T07:51:20;26.50;;;14.93;;
11473;SDS011;5793;52.238;13.438;2023-03-01T07:53:48;25.40;;;15.53;;
11473;SDS011;5793;52.238;13.438;2023-03-01T07:56:16;23.57;;;14.93;;
11473;SDS011;5793;52.238;13.438;2023-03-01T07:58:46;29.70;;;16.70;;
11473;SDS011;5793;52.238;13.438;2023-03-01T08:01:17;38.27;;;18.83;;
11473;SDS011;5793;52.238;13.438;2023-03-01T08:03:46;27.67;;;17.73;;
11473;SDS011;5793;52.238;13.438;2023-03-01T08:06:15;25.77;;;15.87;;
11473;SDS011;5793;52.238;13.438;2023-03-01T08:08:44;26.27;;;15.43;;
11473;SDS011;5793;52.238;13.438;2023-03-01T08:11:13;25.00;;;14.70;;
11473;SDS011;5793;52.238;13.438;2023-03-01T08:13:42;23.90;;;15.93;;
11473;SDS011;5793;52.238;13.438;2023-03-01T08:16:12;24.50;;;15.10;;
11473;SDS011;5793;52.238;13.438;2023-03-01T08:18:42;26.80;;;16.70;;
11473;SDS011;5793;52.238;13.438;2023-03-01T08:21:11;28.47;;;15.60;;
11473;SDS011;5793;52.238;13.438;2023-03-01T08:23:40;30.07;;;15.07;;
11473;SDS011;5793;52.238;13.438;2023-03-01T08:26:10;22.97;;;15.60;;
11473;SDS011;5793;52.238;13.438;2023-03-01T08:28:39;24.03;;;15.43;;
11473;SDS011;5793;52.238;13.438;2023-03-01T08:31:15;31.17;;;17.30;;
11473;SDS011;5793;52.238;13.438;2023-03-01T08:33:45;25.73;;;15.40;;
11473;SDS011;5793;52.238;13.438;2023-03-01T08:36:17;22.57;;;15.60;;
11473;SDS011;5793;52.238;13.438;2023-03-01T08:38:47;27.23;;;16.50;;
11473;SDS011;5793;52.238;13.438;2023-03-01T08:41:15;22.50;;;14.90;;
11473;SDS011;5793;52.238;13.438;2023-03-01T08:43:42;22.27;;;13.17;;
11473;SDS011;5793;52.238;13.438;2023-03-01T08:46:11;22.77;;;13.27;;
11473;SDS011;5793;52.238;13.438;2023-03-01T08:48:41;21.07;;;13.63;;
11473;SDS011;5793;52.238;13.438;2023-03-01T08:51:10;21.37;;;13.43;;
11473;SDS011;5793;52.238;13.438;2023-03-01T08:53:41;22.40;;;14.33;;
11473;SDS011;5793;52.238;13.438;2023-03-01T08:56:09;22.33;;;14.50;;
11473;SDS011;5793;52.238;13.438;2023-03-01T08:58:38;17.77;;;12.17;;
11473;SDS011;5793;52.238;13.438;2023-03-01T09:01:06;12.70;;;9.77;;
11473;SDS011;5793;52.238;13.438;2023-03-01T09:03:35;15.18;;;11.55;;
11473;SDS011;5793;52.238;13.438;2023-03-01T09:06:05;15.70;;;9.13;;
11473;SDS011;5793;52.238;13.438;2023-03-01T09:08:34;13.25;;;8.63;;
11473;SDS011;5793;52.238;13.438;2023-03-01T09:11:03;11.75;;;8.27;;
11473;SDS011;5793;52.238;13.438;2023-03-01T09:13:31;12.02;;;8.57;;
11473;SDS011;5793;52.238;13.438;2023-03-01T09:16:01;10.65;;;8.10;;
11473;SDS011;5793;52.238;13.438;2023-03-01T09:18:31;13.43;;;8.05;;
11473;SDS011;5793;52.238;13.438;2023-03-01T09:21:02;10.20;;;7.75;;
11473;SDS011;5793;52.238;13.438;2023-03-01T09:23:34;11.23;;;7.30;;
11473;SDS011;5793;52.238;13.438;2023-03-01T09:26:05;11.38;;;6.32;;
11473;SDS011;5793;52.238;13.438;2023-03-01T09:28:33;8.73;;;6.97;;
11473;SDS011;5793;52.238;13.438;2023-03-01T09:31:01;9.07;;;6.18;;
11473;SDS011;5793;52.238;13.438;2023-03-01T09:33:30;8.98;;;6.50;;
11473;SDS011;5793;52.238;13.438;2023-03-01T09:35:59;9.23;;;6.03;;
11473;SDS011;5793;52.238;13.438;2023-03-01T09:38:30;8.80;;;6.30;;
11473;SDS011;5793;52.238;13.438;2023-03-01T09:40:58;10.77;;;6.45;;
11473;SDS011;5793;52.238;13.438;2023-03-01T09:43:28;10.10;;;7.18;;
11473;SDS011;5793;52.238;13.438;2023-03-01T09:46:03;8.15;;;5.72;;
11473;SDS011;5793;52.238;13.438;2023-03-01T09:48:39;9.60;;;6.63;;
11473;SDS011;5793;52.238;13.438;2023-03-01T09:51:12;7.95;;;6.28;;
11473;SDS011;5793;52.238;13.438;2023-03-01T09:53:47;7.95;;;5.47;;
11473;SDS011;5793;52.238;13.438;2023-03-01T09:56:16;7.15;;;4.88;;
11473;SDS011;5793;52.238;13.438;2023-03-01T09:58:49;6.72;;;4.82;;
11473;SDS011;5793;52.238;13.438;2023-03-01T10:01:25;7.35;;;5.00;;
11473;SDS011;5793;52.238;13.438;2023-03-01T10:04:01;6.97;;;5.05;;
11473;SDS011;5793;52.238;13.438;2023-03-01T10:06:39;7.65;;;5.00;;
11473;SDS011;5793;52.238;13.438;2023-03-01T10:09:17;7.80;;;4.82;;
11473;SDS011;5793;52.238;13.438;2023-03-01T10:11:48;7.13;;;4.15;;
11473;SDS011;5793;52.238;13.438;2023-03-01T10:14:24;5.68;;;4.50;;
11473;SDS011;5793;52.238;13.438;2023-03-01T10:16:57;7.40;;;4.72;;
11473;SDS011;5793;52.238;13.438;2023-03-01T10:19:30;6.50;;;4.53;;
11473;SDS011;5793;52.238;13.438;2023-03-01T10:22:02;6.28;;;4.70;;
11473;SDS011;5793;52.238;13.438;2023-03-01T10:24:39;6.43;;;4.25;;
11473;SDS011;5793;52.238;13.438;2023-03-01T10:27:09;7.05;;;4.40;;
11473;SDS011;5793;52.238;13.438;2023-03-01T10:29:46;6.65;;;4.72;;
11473;SDS011;5793;52.238;13.438;2023-03-01T10:32:17;6.40;;;4.20;;
11473;SDS011;5793;52.238;13.438;2023-03-01T10:34:50;9.13;;;4.78;;
11473;SDS011;5793;52.238;13.438;2023-03-01T10:37:19;7.35;;;4.55;;
11473;SDS011;5793;52.238;13.438;2023-03-01T10:39:58;7.22;;;4.55;;
11473;SDS011;5793;52.238;13.438;2023-03-01T10:42:33;8.53;;;4.87;;
11473;SDS011;5793;52.238;13.438;2023-03-01T10:45:16;7.00;;;4.60;;
11473;SDS011;5793;52.238;13.438;2023-03-01T10:48:11;5.63;;;4.67;;
11473;SDS011;5793;52.238;13.438;2023-03-01T10:50:40;7.43;;;4.97;;
11473;SDS011;5793;52.238;13.438;2023-03-01T10:53:19;6.73;;;4.40;;
11473;SDS011;5793;52.238;13.438;2023-03-01T10:56:00;9.35;;;5.18;;
11473;SDS011;5793;52.238;13.438;2023-03-01T10:58:31;5.97;;;4.47;;
11473;SDS011;5793;52.238;13.438;2023-03-01T11:01:01;8.00;;;5.57;;
11473;SDS011;5793;52.238;13.438;2023-03-01T11:03:30;10.53;;;5.40;;
11473;SDS011;5793;52.238;13.438;2023-03-01T11:06:02;6.93;;;4.67;;
11473;SDS011;5793;52.238;13.438;2023-03-01T11:08:33;6.43;;;4.17;;
11473;SDS011;5793;52.238;13.438;2023-03-01T11:11:06;7.57;;;5.00;;
11473;SDS011;5793;52.238;13.438;2023-03-01T11:13:49;6.20;;;4.70;;
11473;SDS011;5793;52.238;13.438;2023-03-01T11:16:22;10.23;;;4.80;;
11473;SDS011;5793;52.238;13.438;2023-03-01T11:18:56;6.97;;;4.70;;
11473;SDS011;5793;52.238;13.438;2023-03-01T11:21:25;6.63;;;4.40;;
11473;SDS011;5793;52.238;13.438;2023-03-01T11:23:56;6.80;;;4.57;;
11473;SDS011;5793;52.238;13.438;2023-03-01T11:26:28;7.40;;;4.80;;
11473;SDS011;5793;52.238;13.438;2023-03-01T11:28:58;7.27;;;5.17;;
11473;SDS011;5793;52.238;13.438;2023-03-01T11:31:31;17.37;;;5.30;;
11473;SDS011;5793;52.238;13.438;2023-03-01T11:34:02;6.67;;;5.03;;
11473;SDS011;5793;52.238;13.438;2023-03-01T11:36:40;7.30;;;5.17;;
11473;SDS011;5793;52.238;13.438;2023-03-01T11:39:16;6.30;;;4.10;;
11473;SDS011;5793;52.238;13.438;2023-03-01T11:41:50;12.37;;;4.60;;
11473;SDS011;5793;52.238;13.438;2023-03-01T11:44:43;5.43;;;4.00;;
11473;SDS011;5793;52.238;13.438;2023-03-01T11:47:18;9.07;;;4.63;;
11473;SDS011;5793;52.238;13.438;2023-03-01T11:50:02;9.33;;;5.43;;
11473;SDS011;5793;52.238;13.438;2023-03-01T11:52:42;7.90;;;5.10;;
11473;SDS011;5793;52.238;13.438;2023-03-01T11:55:23;7.77;;;5.00;;
11473;SDS011;5793;52.238;13.438;2023-03-01T11:58:07;5.70;;;4.10;;
11473;SDS011;5793;52.238;13.438;2023-03-01T12:01:02;6.73;;;4.60;;
11473;SDS011;5793;52.238;13.438;2023-03-01T12:03:55;4.83;;;2.93;;
11473;SDS011;5793;52.238;13.438;2023-03-01T12:07:00;5.07;;;3.90;;
11473;SDS011;5793;52.238;13.438;2023-03-01T12:09:38;5.30;;;3.77;;
11473;SDS011;5793;52.238;13.438;2023-03-01T12:12:27;5.73;;;4.50;;
11473;SDS011;5793;52.238;13.438;2023-03-01T12:15:08;8.07;;;4.90;;
11473;SDS011;5793;52.238;13.438;2023-03-01T12:18:19;7.23;;;5.47;;
11473;SDS011;5793;52.238;13.438;2023-03-01T12:20:58;9.83;;;5.40;;
11473;SDS011;5793;52.238;13.438;2023-03-01T12:23:40;7.43;;;5.23;;
11473;SDS011;5793;52.238;13.438;2023-03-01T12:26:32;7.90;;;5.17;;
11473;SDS011;5793;52.238;13.438;2023-03-01T12:37:59;10.93;;;5.53;;
11473;SDS011;5793;52.238;13.438;2023-03-01T12:40:40;9.50;;;6.23;;
11473;SDS011;5793;52.238;13.438;2023-03-01T12:43:22;7.67;;;5.30;;
11473;SDS011;5793;52.238;13.438;2023-03-01T12:46:06;6.10;;;4.93;;
11473;SDS011;5793;52.238;13.438;2023-03-01T12:48:50;9.87;;;5.37;;
11473;SDS011;5793;52.238;13.438;2023-03-01T12:51:28;8.00;;;5.27;;
11473;SDS011;5793;52.238;13.438;2023-03-01T12:53:59;7.80;;;5.33;;
11473;SDS011;5793;52.238;13.438;2023-03-01T12:56:33;8.00;;;5.63;;
11473;SDS011;5793;52.238;13.438;2023-03-01T12:59:07;8.17;;;5.30;;
11473;SDS011;5793;52.238;13.438;2023-03-01T13:01:44;7.30;;;5.53;;
11473;SDS011;5793;52.238;13.438;2023-03-01T13:04:31;7.73;;;5.50;;
11473;SDS011;5793;52.238;13.438;2023-03-01T13:07:12;9.20;;;5.20;;
11473;SDS011;5793;52.238;13.438;2023-03-01T13:09:48;7.23;;;5.57;;
11473;SDS011;5793;52.238;13.438;2023-03-01T13:15:32;9.47;;;5.57;;
11473;SDS011;5793;52.238;13.438;2023-03-01T13:18:03;7.67;;;5.57;;
11473;SDS011;5793;52.238;13.438;2023-03-01T13:20:35;7.47;;;5.10;;
11473;SDS011;5793;52.238;13.438;2023-03-01T13:23:13;8.33;;;5.20;;
11473;SDS011;5793;52.238;13.438;2023-03-01T13:26:02;8.40;;;5.03;;
11473;SDS011;5793;52.238;13.438;2023-03-01T13:34:39;10.47;;;5.77;;
11473;SDS011;5793;52.238;13.438;2023-03-01T13:37:18;8.13;;;4.70;;
11473;SDS011;5793;52.238;13.438;2023-03-01T13:39:47;6.80;;;4.60;;
11473;SDS011;5793;52.238;13.438;2023-03-01T13:42:29;5.93;;;4.70;;
11473;SDS011;5793;52.238;13.438;2023-03-01T13:45:00;9.33;;;4.60;;
11473;SDS011;5793;52.238;13.438;2023-03-01T13:47:28;10.60;;;4.67;;
11473;SDS011;5793;52.238;13.438;2023-03-01T13:49:57;6.30;;;4.40;;
11473;SDS011;5793;52.238;13.438;2023-03-01T13:52:38;6.37;;;4.30;;
11473;SDS011;5793;52.238;13.438;2023-03-01T13:55:14;8.63;;;3.97;;
11473;SDS011;5793;52.238;13.438;2023-03-01T13:57:46;7.67;;;4.33;;
11473;SDS011;5793;52.238;13.438;2023-03-01T14:00:30;7.97;;;4.70;;
11473;SDS011;5793;52.238;13.438;2023-03-01T14:03:04;6.90;;;4.20;;
11473;SDS011;5793;52.238;13.438;2023-03-01T14:05:37;7.37;;;4.07;;
11473;SDS011;5793;52.238;13.438;2023-03-01T14:08:17;4.93;;;3.90;;
11473;SDS011;5793;52.238;13.438;2023-03-01T14:10:54;7.63;;;3.90;;
11473;SDS011;5793;52.238;13.438;2023-03-01T14:13:46;6.10;;;3.80;;
11473;SDS011;5793;52.238;13.438;2023-03-01T14:16:28;4.73;;;3.83;;
11473;SDS011;5793;52.238;13.438;2023-03-01T14:19:07;5.27;;;3.70;;
11473;SDS011;5793;52.238;13.438;2023-03-01T14:21:58;6.97;;;4.10;;
11473;SDS011;5793;52.238;13.438;2023-03-01T14:24:31;7.63;;;3.90;;
11473;SDS011;5793;52.238;13.438;2023-03-01T14:27:04;5.87;;;4.10;;
11473;SDS011;5793;52.238;13.438;2023-03-01T14:29:39;5.30;;;3.70;;
11473;SDS011;5793;52.238;13.438;2023-03-01T14:32:11;7.43;;;4.10;;
11473;SDS011;5793;52.238;13.438;2023-03-01T14:34:45;15.80;;;9.70;;
11473;SDS011;5793;52.238;13.438;2023-03-01T14:37:19;21.60;;;11.13;;
11473;SDS011;5793;52.238;13.438;2023-03-01T14:39:51;12.27;;;6.77;;
11473;SDS011;5793;52.238;13.438;2023-03-01T14:42:20;10.90;;;6.37;;
11473;SDS011;5793;52.238;13.438;2023-03-01T14:44:51;9.17;;;4.67;;
11473;SDS011;5793;52.238;13.438;2023-03-01T14:47:23;7.30;;;4.07;;
11473;SDS011;5793;52.238;13.438;2023-03-01T14:49:56;5.50;;;3.67;;
11473;SDS011;5793;52.238;13.438;2023-03-01T14:52:28;5.10;;;3.70;;
11473;SDS011;5793;52.238;13.438;2023-03-01T14:55:04;6.20;;;3.93;;
11473;SDS011;5793;52.238;13.438;2023-03-01T14:57:34;6.93;;;4.27;;
11473;SDS011;5793;52.238;13.438;2023-03-01T15:00:03;6.67;;;3.80;;
11473;SDS011;5793;52.238;13.438;2023-03-01T15:02:33;6.70;;;3.77;;
11473;SDS011;5793;52.238;13.438;2023-03-01T15:05:03;5.47;;;3.40;;
11473;SDS011;5793;52.238;13.438;2023-03-01T15:07:35;5.57;;;3.60;;
11473;SDS011;5793;52.238;13.438;2023-03-01T15:10:14;5.87;;;3.97;;
11473;SDS011;5793;52.238;13.438;2023-03-01T15:12:46;5.50;;;4.00;;
11473;SDS011;5793;52.238;13.438;2023-03-01T15:15:21;7.40;;;3.57;;
11473;SDS011;5793;52.238;13.438;2023-03-01T15:18:01;4.80;;;3.40;;